createdAt,value
2022-09-04T00:01:20.498Z,68.00
2022-09-04T00:03:57.671Z,68.11
2022-09-04T00:06:32.639Z,67.87
2022-09-04T00:09:12.444Z,67.82
2022-09-04T00:11:50.345Z,68.14
2022-09-04T00:14:24.408Z,67.85
2022-09-04T00:17:01.170Z,68.06
2022-09-04T00:19:37.918Z,67.88
2022-09-04T00:22:16.367Z,67.95
2022-09-04T00:24:53.404Z,67.76
2022-09-04T00:27:26.737Z,67.88
2022-09-04T00:30:03.719Z,67.71
2022-09-04T00:32:41.457Z,67.61
2022-09-04T00:35:16.767Z,67.74
2022-09-04T00:37:53.208Z,67.91
2022-09-04T00:40:31.621Z,67.62
2022-09-04T00:43:30.580Z,68.00
2022-09-04T00:46:19.086Z,67.83
2022-09-04T00:49:09.749Z,67.92
2022-09-04T00:51:46.047Z,67.80
2022-09-04T00:54:36.666Z,67.69
2022-09-04T00:57:29.925Z,67.72
2022-09-04T01:00:10.595Z,67.83
2022-09-04T01:02:58.957Z,67.90
2022-09-04T01:05:45.738Z,67.99
2022-09-04T01:08:29.238Z,68.11
2022-09-04T01:11:15.718Z,68.17
2022-09-04T01:13:48.572Z,68.30
2022-09-04T01:16:26.493Z,68.44
2022-09-04T01:19:03.338Z,68.30
2022-09-04T01:21:57.869Z,68.30
2022-09-04T01:24:43.589Z,68.36
2022-09-04T01:27:21.556Z,68.23
2022-09-04T01:30:01.217Z,68.51
2022-09-04T01:32:34.118Z,68.46
2022-09-04T01:35:12.857Z,68.65
2022-09-04T01:37:51.518Z,68.50
2022-09-04T01:40:35.370Z,68.32
2022-09-04T01:43:11.670Z,68.46
2022-09-04T01:46:01.356Z,68.25
2022-09-04T01:48:38.180Z,68.46
2022-09-04T01:51:16.958Z,68.25
2022-09-04T01:53:52.921Z,68.19
2022-09-04T01:56:30.847Z,68.10
2022-09-04T01:59:08.730Z,67.87
2022-09-04T02:01:42.730Z,67.85
2022-09-04T02:04:22.131Z,67.91
2022-09-04T02:06:59.660Z,68.13
2022-09-04T02:09:37.791Z,68.10
2022-09-04T02:12:21.649Z,67.98
2022-09-04T02:15:03.810Z,68.05
2022-09-04T02:17:42.251Z,68.25
2022-09-04T02:20:23.089Z,68.06
2022-09-04T02:23:05.621Z,68.03
2022-09-04T02:25:42.674Z,67.77
2022-09-04T02:28:24.693Z,67.63
2022-09-04T02:31:02.933Z,67.95
2022-09-04T02:33:39.750Z,67.68
2022-09-04T02:36:14.892Z,67.77
2022-09-04T02:38:53.598Z,67.78
2022-09-04T02:41:28.601Z,67.54
2022-09-04T02:44:12.309Z,67.52
2022-09-04T02:46:53.887Z,67.45
2022-09-04T02:49:34.184Z,67.53
2022-09-04T02:52:16.814Z,67.50
2022-09-04T02:55:05.287Z,67.68
2022-09-04T02:57:50.575Z,67.74
2022-09-04T03:00:22.032Z,67.69
2022-09-04T03:03:01.961Z,67.45
2022-09-04T03:05:35.330Z,67.89
2022-09-04T03:08:13.300Z,68.16
2022-09-04T03:10:48.862Z,67.54
2022-09-04T03:13:25.271Z,67.96
2022-09-04T03:15:58.424Z,67.66
2022-09-04T03:18:36.400Z,67.70
2022-09-04T03:21:11.351Z,68.05
2022-09-04T03:23:44.719Z,67.81
2022-09-04T03:26:21.809Z,67.89
2022-09-04T03:29:04.300Z,68.02
2022-09-04T03:31:42.084Z,67.76
2022-09-04T03:34:29.852Z,68.05
2022-09-04T03:37:17.170Z,67.96
2022-09-04T03:40:00.232Z,68.16
2022-09-04T03:42:37.353Z,67.82
2022-09-04T03:45:20.489Z,68.19
2022-09-04T03:48:06.075Z,68.22
2022-09-04T03:50:45.590Z,68.23
2022-09-04T03:53:24.087Z,68.19
2022-09-04T03:56:14.467Z,68.48
2022-09-04T03:58:50.788Z,68.74
2022-09-04T04:01:30.064Z,68.62
2022-09-04T04:04:37.880Z,68.70
2022-09-04T04:07:18.018Z,68.98
2022-09-04T04:10:07.399Z,69.05
2022-09-04T04:12:59.668Z,69.14
2022-09-04T04:15:39.318Z,69.16
2022-09-04T04:18:19.244Z,69.25
2022-09-04T04:20:58.651Z,69.23
2022-09-04T04:23:57.070Z,69.22
2022-09-04T04:26:41.148Z,69.13
2022-09-04T04:29:40.958Z,69.37
2022-09-04T04:32:25.771Z,69.60
2022-09-04T04:35:17.639Z,69.38
2022-09-04T04:38:04.089Z,69.51
2022-09-04T04:40:54.477Z,69.66
2022-09-04T04:43:35.552Z,69.73
2022-09-04T04:46:14.201Z,69.54
2022-09-04T04:49:08.130Z,69.61
2022-09-04T04:51:53.742Z,69.78
2022-09-04T04:54:42.981Z,69.84
2022-09-04T04:57:23.521Z,69.68
2022-09-04T05:00:07.560Z,69.72
2022-09-04T05:02:44.176Z,69.92
2022-09-04T05:05:22.729Z,70.54
2022-09-04T05:08:03.862Z,70.24
2022-09-04T05:10:42.703Z,70.26
2022-09-04T05:13:23.388Z,70.08
2022-09-04T05:16:09.624Z,70.21
2022-09-04T05:18:48.954Z,70.64
2022-09-04T05:21:24.628Z,70.56
2022-09-04T05:24:01.233Z,70.56
2022-09-04T05:26:40.320Z,70.42
2022-09-04T05:29:15.747Z,70.96
2022-09-04T05:31:52.928Z,71.23
2022-09-04T05:34:30.998Z,71.43
2022-09-04T05:37:12.001Z,71.79
2022-09-04T05:39:57.015Z,71.83
2022-09-04T05:42:45.848Z,72.02
2022-09-04T05:45:24.782Z,72.32
2022-09-04T05:48:12.076Z,72.21
2022-09-04T05:50:55.503Z,72.31
2022-09-04T05:53:42.359Z,72.56
2022-09-04T05:56:32.949Z,73.44
2022-09-04T05:59:17.609Z,73.81
2022-09-04T06:02:11.364Z,74.71
2022-09-04T06:05:06.116Z,75.31
2022-09-04T06:07:43.790Z,75.87
2022-09-04T06:10:18.087Z,76.56
2022-09-04T06:13:03.757Z,77.02
2022-09-04T06:15:41.929Z,77.53
2022-09-04T06:18:24.924Z,78.28
2022-09-04T06:21:08.852Z,78.79
2022-09-04T06:23:57.820Z,79.59
2022-09-04T06:26:47.429Z,79.93
2022-09-04T06:29:27.097Z,80.45
2022-09-04T06:32:12.239Z,80.52
2022-09-04T06:35:00.678Z,80.86
2022-09-04T06:37:42.988Z,81.29
2022-09-04T06:40:33.910Z,81.64
2022-09-04T06:43:16.882Z,81.37
2022-09-04T06:46:02.132Z,81.09
2022-09-04T06:48:45.079Z,80.98
2022-09-04T06:51:29.297Z,81.04
2022-09-04T06:54:13.389Z,81.31
2022-09-04T06:56:59.809Z,81.34
2022-09-04T06:59:43.143Z,81.91
2022-09-04T07:02:26.311Z,81.65
2022-09-04T07:05:10.480Z,81.25
2022-09-04T07:07:48.208Z,80.67
2022-09-04T07:10:24.201Z,80.84
2022-09-04T07:13:18.134Z,80.47
2022-09-04T07:16:05.569Z,80.62
2022-09-04T07:18:59.594Z,80.48
2022-09-04T07:21:38.025Z,80.03
2022-09-04T07:24:18.684Z,79.97
2022-09-04T07:26:55.692Z,79.85
2022-09-04T07:29:34.723Z,79.92
2022-09-04T07:32:09.834Z,79.75
2022-09-04T07:34:49.161Z,79.24
2022-09-04T07:37:28.126Z,79.05
2022-09-04T07:40:09.765Z,79.25
2022-09-04T07:42:47.195Z,79.14
2022-09-04T07:45:30.203Z,79.11
2022-09-04T07:48:14.501Z,79.03
2022-09-04T07:51:03.953Z,78.92
2022-09-04T07:53:49.712Z,79.01
2022-09-04T07:56:27.443Z,79.15
2022-09-04T07:59:13.673Z,79.38
2022-09-04T08:02:04.468Z,79.50
2022-09-04T08:05:00.309Z,79.80
2022-09-04T08:07:57.583Z,79.98
2022-09-04T08:10:32.644Z,80.32
2022-09-04T08:13:14.544Z,80.50
2022-09-04T08:15:51.317Z,80.69
2022-09-04T08:18:46.996Z,81.05
2022-09-04T08:21:27.232Z,81.26
2022-09-04T08:24:27.378Z,81.56
2022-09-04T08:27:10.985Z,81.72
2022-09-04T08:29:59.462Z,81.94
2022-09-04T08:32:53.742Z,81.64
2022-09-04T08:35:33.232Z,81.50
2022-09-04T08:38:22.564Z,81.38
2022-09-04T08:41:26.294Z,81.45
2022-09-04T08:44:19.573Z,81.17
2022-09-04T08:47:19.870Z,80.95
2022-09-04T08:50:06.292Z,81.07
2022-09-04T08:53:03.156Z,81.17
2022-09-04T08:56:00.034Z,81.13
2022-09-04T08:59:02.109Z,80.99
2022-09-04T09:02:06.203Z,81.11
2022-09-04T09:04:57.274Z,81.20
2022-09-04T09:07:46.784Z,81.53
2022-09-04T09:10:34.052Z,81.83
2022-09-04T09:13:27.239Z,81.87
2022-09-04T09:16:22.308Z,81.77
2022-09-04T09:19:13.187Z,81.57
2022-09-04T09:21:46.810Z,81.01
2022-09-04T09:24:39.269Z,80.66
2022-09-04T09:27:41.849Z,80.31
2022-09-04T09:30:16.816Z,80.25
2022-09-04T09:33:16.007Z,80.82
2022-09-04T09:36:12.609Z,80.92
2022-09-04T09:39:11.368Z,81.38
2022-09-04T09:42:15.558Z,80.40
2022-09-04T09:45:07.717Z,79.93
2022-09-04T09:48:04.088Z,79.99
2022-09-04T09:51:04.775Z,79.54
2022-09-04T09:54:07.779Z,79.51
2022-09-04T09:57:01.937Z,79.10
2022-09-04T10:00:02.506Z,78.54
2022-09-04T10:03:02.738Z,78.31
2022-09-04T10:05:56.397Z,78.12
2022-09-04T10:08:55.187Z,78.23
2022-09-04T10:11:42.481Z,78.12
2022-09-04T10:14:33.280Z,78.08
2022-09-04T10:17:33.658Z,77.95
2022-09-04T10:20:27.629Z,77.83
2022-09-04T10:23:33.334Z,77.72
2022-09-04T10:26:23.823Z,77.43
2022-09-04T10:29:21.701Z,77.10
2022-09-04T10:32:16.188Z,76.57
2022-09-04T10:35:05.599Z,76.67
2022-09-04T10:37:54.809Z,76.41
2022-09-04T10:40:39.719Z,76.30
2022-09-04T10:43:31.671Z,76.02
2022-09-04T10:46:23.228Z,75.73
2022-09-04T10:49:20.803Z,75.56
2022-09-04T10:52:22.872Z,75.06
2022-09-04T10:55:15.221Z,74.78
2022-09-04T10:58:00.509Z,74.78
2022-09-04T11:00:37.079Z,74.42
2022-09-04T11:03:35.542Z,74.11
2022-09-04T11:06:26.783Z,74.06
2022-09-04T11:09:20.461Z,73.77
2022-09-04T11:12:13.319Z,73.73
2022-09-04T11:15:12.821Z,73.57
2022-09-04T11:18:04.159Z,73.54
2022-09-04T11:21:03.279Z,73.52
2022-09-04T11:23:53.542Z,73.34
2022-09-04T11:26:51.618Z,73.09
2022-09-04T11:29:41.448Z,73.18
2022-09-04T11:32:32.361Z,73.07
2022-09-04T11:35:23.609Z,72.75
2022-09-04T11:38:24.902Z,72.50
2022-09-04T11:41:22.599Z,72.02
2022-09-04T11:44:22.542Z,71.97
2022-09-04T11:47:13.668Z,72.15
2022-09-04T11:50:00.280Z,71.72
2022-09-04T11:52:50.833Z,71.39
2022-09-04T11:55:41.422Z,71.25
2022-09-04T11:58:31.435Z,71.26
2022-09-04T12:01:20.806Z,71.88
2022-09-04T12:04:23.643Z,71.61
2022-09-04T12:07:14.313Z,71.70
2022-09-04T12:10:02.986Z,70.73
2022-09-04T12:12:58.288Z,70.98
2022-09-04T12:15:57.906Z,70.98
2022-09-04T12:18:54.628Z,70.35
2022-09-04T12:21:53.233Z,70.43
2022-09-04T12:24:52.506Z,70.10
2022-09-04T12:27:49.686Z,71.36
2022-09-04T12:30:23.863Z,71.87
2022-09-04T12:33:23.508Z,71.55
2022-09-04T12:36:24.775Z,70.94
2022-09-04T12:39:18.766Z,70.88
2022-09-04T12:41:55.647Z,70.89
2022-09-04T12:44:40.063Z,70.82
2022-09-04T12:47:22.735Z,70.90
2022-09-04T12:50:10.866Z,71.18
2022-09-04T12:52:57.806Z,70.46
2022-09-04T12:55:39.293Z,69.89
2022-09-04T12:58:22.626Z,69.80
2022-09-04T13:01:03.217Z,69.67
2022-09-04T13:03:45.086Z,69.13
2022-09-04T13:06:26.144Z,68.87
2022-09-04T13:09:11.956Z,68.72
2022-09-04T13:12:00.705Z,68.36
2022-09-04T13:14:57.954Z,68.14
2022-09-04T13:17:33.173Z,67.66
2022-09-04T13:20:15.176Z,67.16
2022-09-04T13:22:52.975Z,66.82
2022-09-04T13:25:38.119Z,66.67
2022-09-04T13:28:20.545Z,66.45
2022-09-04T13:31:00.493Z,66.88
2022-09-04T13:33:49.210Z,67.02
2022-09-04T13:36:35.835Z,66.75
2022-09-04T13:39:36.874Z,67.05
2022-09-04T13:42:37.793Z,66.96
2022-09-04T13:45:15.695Z,67.06
2022-09-04T13:47:50.843Z,67.05
2022-09-04T13:50:25.983Z,66.82
2022-09-04T13:53:00.734Z,66.79
2022-09-04T13:55:34.725Z,66.62
2022-09-04T13:58:11.274Z,66.97
2022-09-04T14:00:46.437Z,67.10
2022-09-04T14:03:31.030Z,66.89
2022-09-04T14:06:00.757Z,67.02
2022-09-04T14:08:31.585Z,66.79
2022-09-04T14:11:21.498Z,66.81
2022-09-04T14:14:20.178Z,67.07
2022-09-04T14:16:55.098Z,67.07
2022-09-04T14:19:37.703Z,66.42
2022-09-04T14:22:22.097Z,66.00
2022-09-04T14:25:06.721Z,65.64
2022-09-04T14:27:49.965Z,65.58
2022-09-04T14:30:23.267Z,65.32
2022-09-04T14:33:07.636Z,64.44
2022-09-04T14:35:47.315Z,63.74
2022-09-04T14:38:30.534Z,62.97
2022-09-04T14:41:10.586Z,63.50
2022-09-04T14:43:50.586Z,62.86
2022-09-04T14:46:28.823Z,63.13
2022-09-04T14:49:06.325Z,62.94
2022-09-04T14:51:37.576Z,62.42
2022-09-04T14:54:08.560Z,61.87
2022-09-04T14:56:45.335Z,61.68
2022-09-04T14:59:21.669Z,61.90
2022-09-04T15:02:03.416Z,61.91
2022-09-04T15:04:40.656Z,61.61
2022-09-04T15:07:29.427Z,61.70
2022-09-04T15:10:11.137Z,61.49
2022-09-04T15:12:44.127Z,60.95
2022-09-04T15:15:22.717Z,61.20
2022-09-04T15:17:55.707Z,61.29
2022-09-04T15:20:29.548Z,60.70
2022-09-04T15:23:03.617Z,59.79
2022-09-04T15:25:58.809Z,59.70
2022-09-04T15:28:38.736Z,59.97
2022-09-04T15:31:16.181Z,60.65
2022-09-04T15:33:48.445Z,61.94
2022-09-04T15:36:21.780Z,62.66
2022-09-04T15:38:53.839Z,62.24
2022-09-04T15:41:36.949Z,61.75
2022-09-04T15:44:18.489Z,61.30
2022-09-04T15:46:59.021Z,61.40
2022-09-04T15:49:42.309Z,61.01
2022-09-04T15:52:31.390Z,61.12
2022-09-04T15:55:10.802Z,61.71
2022-09-04T15:57:58.771Z,63.06
2022-09-04T16:00:32.534Z,63.66
2022-09-04T16:03:12.311Z,64.17
2022-09-04T16:05:45.453Z,64.43
2022-09-04T16:08:23.892Z,64.53
2022-09-04T16:11:00.545Z,65.13
2022-09-04T16:13:45.255Z,65.02
2022-09-04T16:16:23.164Z,65.18
2022-09-04T16:19:16.243Z,65.65
2022-09-04T16:21:54.182Z,65.41
2022-09-04T16:24:31.341Z,65.79
2022-09-04T16:27:01.540Z,65.81
2022-09-04T16:29:36.939Z,65.58
2022-09-04T16:32:10.034Z,65.45
2022-09-04T16:34:47.622Z,65.96
2022-09-04T16:37:22.042Z,66.25
2022-09-04T16:40:02.463Z,66.71
2022-09-04T16:42:38.750Z,66.81
2022-09-04T16:45:15.497Z,66.63
2022-09-04T16:47:51.190Z,66.45
2022-09-04T16:50:28.214Z,66.69
2022-09-04T16:53:12.847Z,66.71
2022-09-04T16:55:54.989Z,67.02
2022-09-04T16:58:37.580Z,67.55
2022-09-04T17:01:16.397Z,67.86
2022-09-04T17:04:13.420Z,68.02
2022-09-04T17:06:56.513Z,68.45
2022-09-04T17:09:32.550Z,68.90
2022-09-04T17:12:18.147Z,69.16
2022-09-04T17:14:54.129Z,69.36
2022-09-04T17:17:30.655Z,69.54
2022-09-04T17:20:10.384Z,70.13
2022-09-04T17:29:03.038Z,70.60
2022-09-04T17:29:16.881Z,71.14
2022-09-04T17:29:24.881Z,71.92
2022-09-04T17:31:52.482Z,72.22
2022-09-04T17:40:33.848Z,72.71
2022-09-04T17:40:39.025Z,73.07
2022-09-04T17:40:54.772Z,73.50
2022-09-04T17:43:28.495Z,74.01
2022-09-04T17:46:14.058Z,74.14
2022-09-04T17:48:45.625Z,74.65
2022-09-04T17:51:19.320Z,75.37
2022-09-04T17:53:54.204Z,75.95
2022-09-04T17:56:28.102Z,75.95
2022-09-04T17:59:02.734Z,76.33
2022-09-04T18:01:40.724Z,76.78
2022-09-04T18:04:22.730Z,76.85
2022-09-04T18:07:35.583Z,77.00
2022-09-04T18:10:02.778Z,77.22
2022-09-04T18:12:38.562Z,77.53
2022-09-04T18:15:32.379Z,77.74
2022-09-04T18:18:12.314Z,78.06
2022-09-04T18:20:51.730Z,78.14
2022-09-04T18:23:48.134Z,78.40
2022-09-04T18:26:40.100Z,78.34
2022-09-04T18:32:57.610Z,78.43
2022-09-04T18:37:15.725Z,78.70
2022-09-04T18:37:23.395Z,78.96
2022-09-04T18:38:38.373Z,79.04
2022-09-04T18:46:28.775Z,79.10
2022-09-04T18:50:35.292Z,79.49
2022-09-04T18:50:36.654Z,79.48
2022-09-04T18:50:39.983Z,79.29
2022-09-04T18:53:07.435Z,79.63
2022-09-04T18:55:45.012Z,79.91
2022-09-04T18:58:37.090Z,80.01
2022-09-04T19:01:14.534Z,80.14
2022-09-04T19:03:48.330Z,80.50
2022-09-04T19:06:31.489Z,80.61
2022-09-04T19:09:11.178Z,80.34
2022-09-04T19:11:44.700Z,80.44
2022-09-04T19:14:17.723Z,80.25
2022-09-04T19:16:53.193Z,80.33
2022-09-04T19:19:29.725Z,80.26
2022-09-04T19:22:10.273Z,80.33
2022-09-04T19:24:49.591Z,80.35
2022-09-04T19:27:29.460Z,80.25
2022-09-04T19:30:18.212Z,80.50
2022-09-04T19:33:04.920Z,80.84
2022-09-04T19:35:39.700Z,80.78
2022-09-04T19:42:02.953Z,80.82
2022-09-04T19:46:01.038Z,80.55
2022-09-04T19:46:09.596Z,80.47
2022-09-04T19:47:29.816Z,80.58
2022-09-04T19:53:22.726Z,80.77
2022-09-04T19:53:29.642Z,80.75
2022-09-04T19:56:04.201Z,80.81
2022-09-04T19:58:42.601Z,80.80
2022-09-04T20:01:17.416Z,80.95
2022-09-04T20:03:52.035Z,81.25
2022-09-04T20:06:26.002Z,81.21
2022-09-04T20:09:03.858Z,81.55
2022-09-04T20:11:39.438Z,81.62
2022-09-04T20:14:23.101Z,81.58
2022-09-04T20:17:18.612Z,81.71
2022-09-04T20:19:53.652Z,81.77
2022-09-04T20:22:33.244Z,81.84
2022-09-04T20:25:26.612Z,81.89
2022-09-04T20:28:02.352Z,81.60
2022-09-04T20:30:35.334Z,81.47
2022-09-04T20:33:12.812Z,81.50
2022-09-04T20:35:45.726Z,81.17
2022-09-04T20:38:22.962Z,81.15
2022-09-04T20:40:58.112Z,81.38
2022-09-04T20:43:38.785Z,81.33
2022-09-04T20:51:24.083Z,81.32
2022-09-04T20:52:48.886Z,81.22
2022-09-04T20:52:51.601Z,81.42
2022-09-04T20:55:16.443Z,81.52
2022-09-04T21:03:14.934Z,81.63
2022-09-04T21:03:17.734Z,81.67
2022-09-04T21:04:10.347Z,81.78
2022-09-04T21:06:46.242Z,81.59
2022-09-04T21:09:28.202Z,81.42
2022-09-04T21:12:06.314Z,81.49
2022-09-04T21:14:44.978Z,81.24
2022-09-04T21:17:40.535Z,81.52
2022-09-04T21:20:32.423Z,81.41
2022-09-04T21:23:24.830Z,81.37
2022-09-04T21:26:07.461Z,81.40
2022-09-04T21:28:59.705Z,80.99
2022-09-04T21:32:02.316Z,80.89
2022-09-04T21:34:55.513Z,81.02
2022-09-04T21:37:32.301Z,81.43
2022-09-04T21:40:50.440Z,81.32
2022-09-04T21:43:37.009Z,81.53
2022-09-04T21:46:24.795Z,81.86
2022-09-04T21:49:23.596Z,81.34
2022-09-04T21:52:14.766Z,81.83
2022-09-04T21:58:43.989Z,81.84
2022-09-04T22:02:38.663Z,82.34
2022-09-04T22:02:39.064Z,81.85
2022-09-04T22:04:17.923Z,81.87
2022-09-04T22:08:24.032Z,81.78
2022-09-04T22:13:40.330Z,81.86
2022-09-04T22:13:42.099Z,81.85
2022-09-04T22:16:07.359Z,81.71
2022-09-04T22:19:06.972Z,81.41
2022-09-04T22:22:04.202Z,81.80
2022-09-04T22:25:04.779Z,81.24
2022-09-04T22:28:07.351Z,81.43
2022-09-04T22:30:56.199Z,81.14
2022-09-04T22:34:16.979Z,80.99
2022-09-04T22:37:07.209Z,81.29
2022-09-04T22:40:03.104Z,81.49
2022-09-04T22:42:48.378Z,81.41
2022-09-04T22:45:47.867Z,81.18
2022-09-04T22:48:47.866Z,81.30
2022-09-04T22:51:45.676Z,81.62
2022-09-04T22:54:32.579Z,81.25
2022-09-04T22:57:05.537Z,81.33
2022-09-04T22:59:58.389Z,81.64
2022-09-04T23:03:07.694Z,81.22
2022-09-04T23:07:47.075Z,81.52
2022-09-04T23:13:44.173Z,81.08
2022-09-04T23:14:02.408Z,80.84
2022-09-04T23:15:34.390Z,80.92
2022-09-04T23:20:21.057Z,81.03
2022-09-04T23:26:43.052Z,80.76
2022-09-04T23:26:44.824Z,81.21
2022-09-04T23:27:39.331Z,80.94
2022-09-04T23:30:25.762Z,81.01
2022-09-04T23:33:27.069Z,80.75
2022-09-04T23:36:04.455Z,81.48
2022-09-04T23:38:51.489Z,81.84
2022-09-04T23:41:33.857Z,81.35
2022-09-04T23:44:25.388Z,81.75
2022-09-04T23:47:48.349Z,82.49
2022-09-04T23:50:23.409Z,82.02
2022-09-04T23:53:07.678Z,82.36
2022-09-04T23:55:51.009Z,82.06
2022-09-04T23:58:47.210Z,82.69
